sensor_id;sensor_type;location;lat;lon;timestamp;P1;durP1;ratioP1;P2;durP2;ratioP2
79066;SDS011;68470;50.224;14.348;2023-06-26T00:01:24;9.85;;;6.30;;
79066;SDS011;68470;50.224;14.348;2023-06-26T00:03:49;7.78;;;5.22;;
79066;SDS011;68470;50.224;14.348;2023-06-26T00:06:15;7.50;;;5.57;;
79066;SDS011;68470;50.224;14.348;2023-06-26T00:08:41;8.15;;;5.93;;
79066;SDS011;68470;50.224;14.348;2023-06-26T00:11:07;9.77;;;4.97;;
79066;SDS011;68470;50.224;14.348;2023-06-26T00:13:33;8.98;;;5.68;;
79066;SDS011;68470;50.224;14.348;2023-06-26T00:15:59;7.60;;;5.53;;
79066;SDS011;68470;50.224;14.348;2023-06-26T00:20:54;9.68;;;5.28;;
79066;SDS011;68470;50.224;14.348;2023-06-26T00:23:20;9.77;;;5.80;;
79066;SDS011;68470;50.224;14.348;2023-06-26T00:25:46;7.30;;;5.07;;
79066;SDS011;68470;50.224;14.348;2023-06-26T00:28:11;8.98;;;5.55;;
79066;SDS011;68470;50.224;14.348;2023-06-26T00:30:37;6.72;;;5.18;;
79066;SDS011;68470;50.224;14.348;2023-06-26T00:33:03;8.57;;;5.35;;
79066;SDS011;68470;50.224;14.348;2023-06-26T00:35:29;8.15;;;5.90;;
79066;SDS011;68470;50.224;14.348;2023-06-26T00:37:55;8.55;;;6.13;;
79066;SDS011;68470;50.224;14.348;2023-06-26T00:40:21;7.70;;;5.70;;
79066;SDS011;68470;50.224;14.348;2023-06-26T00:42:46;7.60;;;5.47;;
79066;SDS011;68470;50.224;14.348;2023-06-26T00:45:12;7.90;;;5.50;;
79066;SDS011;68470;50.224;14.348;2023-06-26T00:47:38;9.80;;;5.40;;
79066;SDS011;68470;50.224;14.348;2023-06-26T00:50:04;9.07;;;5.28;;
79066;SDS011;68470;50.224;14.348;2023-06-26T00:52:31;8.05;;;6.13;;
79066;SDS011;68470;50.224;14.348;2023-06-26T00:54:57;8.40;;;5.90;;
79066;SDS011;68470;50.224;14.348;2023-06-26T00:57:23;8.15;;;5.97;;
79066;SDS011;68470;50.224;14.348;2023-06-26T00:59:49;9.32;;;6.30;;
79066;SDS011;68470;50.224;14.348;2023-06-26T01:02:15;9.00;;;5.90;;
79066;SDS011;68470;50.224;14.348;2023-06-26T01:04:49;9.57;;;6.30;;
79066;SDS011;68470;50.224;14.348;2023-06-26T01:07:16;7.85;;;5.20;;
79066;SDS011;68470;50.224;14.348;2023-06-26T01:09:47;11.48;;;5.72;;
79066;SDS011;68470;50.224;14.348;2023-06-26T01:12:14;12.10;;;6.95;;
79066;SDS011;68470;50.224;14.348;2023-06-26T01:14:40;8.57;;;6.20;;
79066;SDS011;68470;50.224;14.348;2023-06-26T01:17:06;10.23;;;6.43;;
79066;SDS011;68470;50.224;14.348;2023-06-26T01:19:37;12.00;;;6.30;;
79066;SDS011;68470;50.224;14.348;2023-06-26T01:22:14;8.00;;;5.78;;
79066;SDS011;68470;50.224;14.348;2023-06-26T01:27:47;10.38;;;6.55;;
79066;SDS011;68470;50.224;14.348;2023-06-26T01:30:15;9.20;;;6.28;;
79066;SDS011;68470;50.224;14.348;2023-06-26T01:32:43;11.57;;;6.18;;
79066;SDS011;68470;50.224;14.348;2023-06-26T01:35:10;9.52;;;6.18;;
79066;SDS011;68470;50.224;14.348;2023-06-26T01:37:36;11.35;;;6.72;;
79066;SDS011;68470;50.224;14.348;2023-06-26T01:40:03;9.90;;;6.03;;
79066;SDS011;68470;50.224;14.348;2023-06-26T01:42:34;9.10;;;6.32;;
79066;SDS011;68470;50.224;14.348;2023-06-26T01:45:10;8.90;;;6.00;;
79066;SDS011;68470;50.224;14.348;2023-06-26T01:47:40;9.25;;;6.32;;
79066;SDS011;68470;50.224;14.348;2023-06-26T01:50:14;7.97;;;5.82;;
79066;SDS011;68470;50.224;14.348;2023-06-26T01:52:45;8.10;;;6.72;;
79066;SDS011;68470;50.224;14.348;2023-06-26T01:58:05;8.73;;;6.07;;
79066;SDS011;68470;50.224;14.348;2023-06-26T02:00:33;9.10;;;6.53;;
79066;SDS011;68470;50.224;14.348;2023-06-26T02:02:59;11.45;;;6.72;;
79066;SDS011;68470;50.224;14.348;2023-06-26T02:05:26;9.55;;;6.35;;
79066;SDS011;68470;50.224;14.348;2023-06-26T02:07:51;11.35;;;6.80;;
79066;SDS011;68470;50.224;14.348;2023-06-26T02:10:17;9.68;;;6.45;;
79066;SDS011;68470;50.224;14.348;2023-06-26T02:12:43;11.35;;;6.90;;
79066;SDS011;68470;50.224;14.348;2023-06-26T02:15:09;10.18;;;7.18;;
79066;SDS011;68470;50.224;14.348;2023-06-26T02:17:35;11.93;;;7.40;;
79066;SDS011;68470;50.224;14.348;2023-06-26T02:20:01;9.88;;;7.07;;
79066;SDS011;68470;50.224;14.348;2023-06-26T02:22:28;13.55;;;7.72;;
79066;SDS011;68470;50.224;14.348;2023-06-26T02:24:54;11.70;;;7.28;;
79066;SDS011;68470;50.224;14.348;2023-06-26T02:27:20;9.57;;;6.68;;
79066;SDS011;68470;50.224;14.348;2023-06-26T02:29:46;9.70;;;7.22;;
79066;SDS011;68470;50.224;14.348;2023-06-26T02:32:11;10.38;;;6.35;;
79066;SDS011;68470;50.224;14.348;2023-06-26T02:34:37;12.10;;;7.80;;
79066;SDS011;68470;50.224;14.348;2023-06-26T02:37:03;12.15;;;7.47;;
79066;SDS011;68470;50.224;14.348;2023-06-26T02:39:29;10.50;;;7.13;;
79066;SDS011;68470;50.224;14.348;2023-06-26T02:41:55;9.32;;;6.95;;
79066;SDS011;68470;50.224;14.348;2023-06-26T02:44:21;13.02;;;8.13;;
79066;SDS011;68470;50.224;14.348;2023-06-26T02:46:46;10.93;;;6.95;;
79066;SDS011;68470;50.224;14.348;2023-06-26T02:49:13;10.07;;;7.50;;
79066;SDS011;68470;50.224;14.348;2023-06-26T02:51:38;12.80;;;7.88;;
79066;SDS011;68470;50.224;14.348;2023-06-26T02:54:05;12.23;;;7.85;;
79066;SDS011;68470;50.224;14.348;2023-06-26T02:56:30;10.57;;;7.88;;
79066;SDS011;68470;50.224;14.348;2023-06-26T02:58:57;9.90;;;7.82;;
79066;SDS011;68470;50.224;14.348;2023-06-26T03:01:23;9.15;;;6.60;;
79066;SDS011;68470;50.224;14.348;2023-06-26T03:03:49;11.93;;;7.93;;
79066;SDS011;68470;50.224;14.348;2023-06-26T03:06:15;8.73;;;6.90;;
79066;SDS011;68470;50.224;14.348;2023-06-26T03:08:41;12.73;;;8.23;;
79066;SDS011;68470;50.224;14.348;2023-06-26T03:11:07;12.98;;;8.02;;
79066;SDS011;68470;50.224;14.348;2023-06-26T03:13:37;10.38;;;6.68;;
79066;SDS011;68470;50.224;14.348;2023-06-26T03:16:03;9.65;;;6.75;;
79066;SDS011;68470;50.224;14.348;2023-06-26T03:18:29;11.10;;;7.97;;
79066;SDS011;68470;50.224;14.348;2023-06-26T03:20:55;10.93;;;7.95;;
79066;SDS011;68470;50.224;14.348;2023-06-26T03:23:22;11.13;;;7.28;;
79066;SDS011;68470;50.224;14.348;2023-06-26T03:25:48;13.40;;;7.97;;
79066;SDS011;68470;50.224;14.348;2023-06-26T03:28:15;9.82;;;7.00;;
79066;SDS011;68470;50.224;14.348;2023-06-26T03:30:40;11.05;;;7.65;;
79066;SDS011;68470;50.224;14.348;2023-06-26T03:33:06;11.35;;;6.13;;
79066;SDS011;68470;50.224;14.348;2023-06-26T03:35:32;10.98;;;7.20;;
79066;SDS011;68470;50.224;14.348;2023-06-26T03:37:58;9.18;;;6.47;;
79066;SDS011;68470;50.224;14.348;2023-06-26T03:40:24;9.73;;;7.35;;
79066;SDS011;68470;50.224;14.348;2023-06-26T03:42:50;10.38;;;7.13;;
79066;SDS011;68470;50.224;14.348;2023-06-26T03:45:15;9.73;;;6.57;;
79066;SDS011;68470;50.224;14.348;2023-06-26T03:47:41;13.43;;;7.30;;
79066;SDS011;68470;50.224;14.348;2023-06-26T03:50:07;14.90;;;7.20;;
79066;SDS011;68470;50.224;14.348;2023-06-26T03:52:33;9.07;;;6.65;;
79066;SDS011;68470;50.224;14.348;2023-06-26T03:54:59;10.38;;;6.88;;
79066;SDS011;68470;50.224;14.348;2023-06-26T03:57:25;9.02;;;6.85;;
79066;SDS011;68470;50.224;14.348;2023-06-26T03:59:51;7.75;;;5.95;;
79066;SDS011;68470;50.224;14.348;2023-06-26T04:02:18;10.15;;;6.63;;
79066;SDS011;68470;50.224;14.348;2023-06-26T04:04:43;9.70;;;5.65;;
79066;SDS011;68470;50.224;14.348;2023-06-26T04:07:09;8.70;;;5.78;;
79066;SDS011;68470;50.224;14.348;2023-06-26T04:09:35;8.15;;;5.57;;
79066;SDS011;68470;50.224;14.348;2023-06-26T04:12:01;7.72;;;5.55;;
79066;SDS011;68470;50.224;14.348;2023-06-26T04:14:27;9.57;;;6.10;;
79066;SDS011;68470;50.224;14.348;2023-06-26T04:16:53;10.15;;;6.97;;
79066;SDS011;68470;50.224;14.348;2023-06-26T04:19:19;10.43;;;5.80;;
79066;SDS011;68470;50.224;14.348;2023-06-26T04:21:45;9.68;;;5.72;;
79066;SDS011;68470;50.224;14.348;2023-06-26T04:24:11;8.55;;;5.18;;
79066;SDS011;68470;50.224;14.348;2023-06-26T04:26:36;7.78;;;5.80;;
79066;SDS011;68470;50.224;14.348;2023-06-26T04:29:06;8.07;;;5.45;;
79066;SDS011;68470;50.224;14.348;2023-06-26T04:31:32;10.02;;;6.03;;
79066;SDS011;68470;50.224;14.348;2023-06-26T04:33:58;8.45;;;5.93;;
79066;SDS011;68470;50.224;14.348;2023-06-26T04:36:25;8.95;;;6.18;;
79066;SDS011;68470;50.224;14.348;2023-06-26T04:38:57;16.38;;;6.60;;
79066;SDS011;68470;50.224;14.348;2023-06-26T04:41:24;10.32;;;6.60;;
79066;SDS011;68470;50.224;14.348;2023-06-26T04:43:50;13.30;;;6.35;;
79066;SDS011;68470;50.224;14.348;2023-06-26T04:46:16;8.50;;;6.60;;
79066;SDS011;68470;50.224;14.348;2023-06-26T04:48:42;10.95;;;6.63;;
79066;SDS011;68470;50.224;14.348;2023-06-26T04:51:10;8.48;;;5.95;;
79066;SDS011;68470;50.224;14.348;2023-06-26T04:53:36;7.93;;;5.53;;
79066;SDS011;68470;50.224;14.348;2023-06-26T04:56:02;7.95;;;5.63;;
79066;SDS011;68470;50.224;14.348;2023-06-26T04:58:28;8.10;;;5.95;;
79066;SDS011;68470;50.224;14.348;2023-06-26T05:00:54;8.32;;;5.75;;
79066;SDS011;68470;50.224;14.348;2023-06-26T05:03:20;7.72;;;5.90;;
79066;SDS011;68470;50.224;14.348;2023-06-26T05:05:47;8.35;;;6.00;;
79066;SDS011;68470;50.224;14.348;2023-06-26T05:08:16;10.57;;;6.88;;
79066;SDS011;68470;50.224;14.348;2023-06-26T05:10:44;7.20;;;5.40;;
79066;SDS011;68470;50.224;14.348;2023-06-26T05:13:10;9.35;;;6.55;;
79066;SDS011;68470;50.224;14.348;2023-06-26T05:15:37;8.38;;;5.95;;
79066;SDS011;68470;50.224;14.348;2023-06-26T05:18:02;9.32;;;6.90;;
79066;SDS011;68470;50.224;14.348;2023-06-26T05:20:29;10.02;;;6.50;;
79066;SDS011;68470;50.224;14.348;2023-06-26T05:22:55;10.57;;;7.20;;
79066;SDS011;68470;50.224;14.348;2023-06-26T05:25:22;9.18;;;7.10;;
79066;SDS011;68470;50.224;14.348;2023-06-26T05:27:49;12.20;;;6.88;;
79066;SDS011;68470;50.224;14.348;2023-06-26T05:30:16;8.60;;;6.65;;
79066;SDS011;68470;50.224;14.348;2023-06-26T05:32:42;10.63;;;6.50;;
79066;SDS011;68470;50.224;14.348;2023-06-26T05:35:12;9.20;;;6.57;;
79066;SDS011;68470;50.224;14.348;2023-06-26T05:37:38;10.15;;;6.90;;
79066;SDS011;68470;50.224;14.348;2023-06-26T05:40:06;10.23;;;7.25;;
79066;SDS011;68470;50.224;14.348;2023-06-26T05:42:33;8.65;;;6.68;;
79066;SDS011;68470;50.224;14.348;2023-06-26T05:44:59;10.18;;;7.72;;
79066;SDS011;68470;50.224;14.348;2023-06-26T05:47:25;11.35;;;7.32;;
79066;SDS011;68470;50.224;14.348;2023-06-26T05:49:51;9.57;;;6.65;;
79066;SDS011;68470;50.224;14.348;2023-06-26T05:52:17;9.57;;;7.40;;
79066;SDS011;68470;50.224;14.348;2023-06-26T05:54:43;10.23;;;8.18;;
79066;SDS011;68470;50.224;14.348;2023-06-26T05:57:09;9.73;;;7.18;;
79066;SDS011;68470;50.224;14.348;2023-06-26T05:59:36;10.00;;;7.35;;
79066;SDS011;68470;50.224;14.348;2023-06-26T06:02:04;8.90;;;6.63;;
79066;SDS011;68470;50.224;14.348;2023-06-26T06:04:30;12.80;;;6.85;;
79066;SDS011;68470;50.224;14.348;2023-06-26T06:06:56;9.40;;;7.18;;
79066;SDS011;68470;50.224;14.348;2023-06-26T06:09:22;9.75;;;7.22;;
79066;SDS011;68470;50.224;14.348;2023-06-26T06:11:47;9.52;;;6.60;;
79066;SDS011;68470;50.224;14.348;2023-06-26T06:14:13;12.38;;;7.15;;
79066;SDS011;68470;50.224;14.348;2023-06-26T06:16:39;9.35;;;7.03;;
79066;SDS011;68470;50.224;14.348;2023-06-26T06:19:05;9.82;;;7.40;;
79066;SDS011;68470;50.224;14.348;2023-06-26T06:21:32;11.07;;;7.47;;
79066;SDS011;68470;50.224;14.348;2023-06-26T06:23:58;8.30;;;7.00;;
79066;SDS011;68470;50.224;14.348;2023-06-26T06:26:23;10.35;;;7.00;;
79066;SDS011;68470;50.224;14.348;2023-06-26T06:28:49;8.45;;;7.05;;
79066;SDS011;68470;50.224;14.348;2023-06-26T06:31:15;9.35;;;6.93;;
79066;SDS011;68470;50.224;14.348;2023-06-26T06:33:41;10.13;;;7.57;;
79066;SDS011;68470;50.224;14.348;2023-06-26T06:36:06;8.85;;;6.40;;
79066;SDS011;68470;50.224;14.348;2023-06-26T06:38:32;8.95;;;6.43;;
79066;SDS011;68470;50.224;14.348;2023-06-26T06:40:58;11.38;;;7.22;;
79066;SDS011;68470;50.224;14.348;2023-06-26T06:43:24;9.70;;;7.47;;
79066;SDS011;68470;50.224;14.348;2023-06-26T06:45:49;11.32;;;7.38;;
79066;SDS011;68470;50.224;14.348;2023-06-26T06:48:15;10.02;;;6.90;;
79066;SDS011;68470;50.224;14.348;2023-06-26T06:50:41;10.25;;;7.28;;
79066;SDS011;68470;50.224;14.348;2023-06-26T06:53:07;8.68;;;6.38;;
79066;SDS011;68470;50.224;14.348;2023-06-26T06:55:33;10.85;;;6.90;;
79066;SDS011;68470;50.224;14.348;2023-06-26T06:57:59;9.70;;;6.63;;
79066;SDS011;68470;50.224;14.348;2023-06-26T07:00:25;8.65;;;7.05;;
79066;SDS011;68470;50.224;14.348;2023-06-26T07:02:51;11.25;;;7.18;;
79066;SDS011;68470;50.224;14.348;2023-06-26T07:05:16;10.07;;;7.32;;
79066;SDS011;68470;50.224;14.348;2023-06-26T07:07:42;11.35;;;7.05;;
79066;SDS011;68470;50.224;14.348;2023-06-26T07:10:09;9.77;;;6.85;;
79066;SDS011;68470;50.224;14.348;2023-06-26T07:12:36;8.60;;;6.47;;
79066;SDS011;68470;50.224;14.348;2023-06-26T07:15:02;9.13;;;7.00;;
79066;SDS011;68470;50.224;14.348;2023-06-26T07:17:30;10.50;;;7.15;;
79066;SDS011;68470;50.224;14.348;2023-06-26T07:20:00;10.43;;;7.63;;
79066;SDS011;68470;50.224;14.348;2023-06-26T07:22:31;10.13;;;7.28;;
79066;SDS011;68470;50.224;14.348;2023-06-26T07:24:57;10.07;;;7.32;;
79066;SDS011;68470;50.224;14.348;2023-06-26T07:27:23;7.85;;;5.70;;
79066;SDS011;68470;50.224;14.348;2023-06-26T07:29:48;8.60;;;5.72;;
79066;SDS011;68470;50.224;14.348;2023-06-26T07:32:14;8.70;;;5.88;;
79066;SDS011;68470;50.224;14.348;2023-06-26T07:34:40;8.70;;;5.70;;
79066;SDS011;68470;50.224;14.348;2023-06-26T07:37:06;8.30;;;6.53;;
79066;SDS011;68470;50.224;14.348;2023-06-26T07:39:32;9.10;;;5.72;;
79066;SDS011;68470;50.224;14.348;2023-06-26T07:41:58;6.50;;;5.00;;
79066;SDS011;68470;50.224;14.348;2023-06-26T07:44:24;8.38;;;5.43;;
79066;SDS011;68470;50.224;14.348;2023-06-26T07:46:50;7.13;;;4.97;;
79066;SDS011;68470;50.224;14.348;2023-06-26T07:49:16;5.72;;;4.72;;
79066;SDS011;68470;50.224;14.348;2023-06-26T07:51:42;9.73;;;5.40;;
79066;SDS011;68470;50.224;14.348;2023-06-26T07:54:07;5.70;;;5.15;;
79066;SDS011;68470;50.224;14.348;2023-06-26T07:59:22;7.43;;;5.38;;
79066;SDS011;68470;50.224;14.348;2023-06-26T08:01:50;7.10;;;5.60;;
79066;SDS011;68470;50.224;14.348;2023-06-26T08:04:17;7.15;;;4.63;;
79066;SDS011;68470;50.224;14.348;2023-06-26T08:06:44;10.13;;;5.18;;
79066;SDS011;68470;50.224;14.348;2023-06-26T08:09:10;7.32;;;5.35;;
79066;SDS011;68470;50.224;14.348;2023-06-26T08:11:38;7.63;;;4.95;;
79066;SDS011;68470;50.224;14.348;2023-06-26T08:14:04;5.68;;;4.80;;
79066;SDS011;68470;50.224;14.348;2023-06-26T08:16:30;6.63;;;5.10;;
79066;SDS011;68470;50.224;14.348;2023-06-26T08:18:55;7.65;;;5.32;;
79066;SDS011;68470;50.224;14.348;2023-06-26T08:21:21;6.55;;;4.72;;
79066;SDS011;68470;50.224;14.348;2023-06-26T08:23:47;7.38;;;4.85;;
79066;SDS011;68470;50.224;14.348;2023-06-26T08:26:13;6.93;;;5.05;;
79066;SDS011;68470;50.224;14.348;2023-06-26T08:28:39;7.50;;;4.47;;
79066;SDS011;68470;50.224;14.348;2023-06-26T08:31:05;8.25;;;5.40;;
79066;SDS011;68470;50.224;14.348;2023-06-26T08:33:30;7.13;;;5.18;;
79066;SDS011;68470;50.224;14.348;2023-06-26T08:35:56;5.47;;;4.68;;
79066;SDS011;68470;50.224;14.348;2023-06-26T08:38:22;7.13;;;4.53;;
79066;SDS011;68470;50.224;14.348;2023-06-26T08:40:48;5.57;;;4.63;;
79066;SDS011;68470;50.224;14.348;2023-06-26T08:43:13;7.53;;;4.63;;
79066;SDS011;68470;50.224;14.348;2023-06-26T08:45:39;7.35;;;5.25;;
79066;SDS011;68470;50.224;14.348;2023-06-26T08:48:07;7.80;;;4.60;;
79066;SDS011;68470;50.224;14.348;2023-06-26T08:50:34;5.95;;;4.90;;
79066;SDS011;68470;50.224;14.348;2023-06-26T08:53:04;5.93;;;4.65;;
79066;SDS011;68470;50.224;14.348;2023-06-26T08:55:33;5.97;;;4.55;;
79066;SDS011;68470;50.224;14.348;2023-06-26T08:58:02;6.47;;;5.10;;
79066;SDS011;68470;50.224;14.348;2023-06-26T09:00:30;6.65;;;4.78;;
79066;SDS011;68470;50.224;14.348;2023-06-26T09:02:56;5.63;;;4.47;;
79066;SDS011;68470;50.224;14.348;2023-06-26T09:05:22;6.57;;;4.82;;
79066;SDS011;68470;50.224;14.348;2023-06-26T09:07:48;6.95;;;5.03;;
79066;SDS011;68470;50.224;14.348;2023-06-26T09:10:14;5.88;;;4.70;;
79066;SDS011;68470;50.224;14.348;2023-06-26T09:12:39;5.43;;;4.57;;
79066;SDS011;68470;50.224;14.348;2023-06-26T09:15:06;7.25;;;4.88;;
79066;SDS011;68470;50.224;14.348;2023-06-26T09:17:38;5.10;;;4.05;;
79066;SDS011;68470;50.224;14.348;2023-06-26T09:20:06;8.00;;;5.28;;
79066;SDS011;68470;50.224;14.348;2023-06-26T09:22:33;6.82;;;5.57;;
79066;SDS011;68470;50.224;14.348;2023-06-26T09:25:02;5.90;;;5.28;;
79066;SDS011;68470;50.224;14.348;2023-06-26T09:27:29;6.63;;;5.15;;
79066;SDS011;68470;50.224;14.348;2023-06-26T09:29:56;6.30;;;4.90;;
79066;SDS011;68470;50.224;14.348;2023-06-26T09:32:24;6.43;;;5.10;;
79066;SDS011;68470;50.224;14.348;2023-06-26T09:34:51;7.15;;;4.72;;
79066;SDS011;68470;50.224;14.348;2023-06-26T09:37:17;7.05;;;4.75;;
79066;SDS011;68470;50.224;14.348;2023-06-26T09:39:44;7.10;;;5.38;;
79066;SDS011;68470;50.224;14.348;2023-06-26T09:42:09;6.07;;;5.35;;
79066;SDS011;68470;50.224;14.348;2023-06-26T09:44:36;7.30;;;5.30;;
79066;SDS011;68470;50.224;14.348;2023-06-26T09:47:02;6.50;;;5.63;;
79066;SDS011;68470;50.224;14.348;2023-06-26T09:49:29;7.65;;;5.18;;
79066;SDS011;68470;50.224;14.348;2023-06-26T09:51:56;4.63;;;3.63;;
79066;SDS011;68470;50.224;14.348;2023-06-26T09:54:22;6.20;;;5.13;;
79066;SDS011;68470;50.224;14.348;2023-06-26T09:56:49;7.80;;;5.30;;
79066;SDS011;68470;50.224;14.348;2023-06-26T09:59:15;8.02;;;5.40;;
79066;SDS011;68470;50.224;14.348;2023-06-26T10:01:42;5.43;;;4.07;;
79066;SDS011;68470;50.224;14.348;2023-06-26T10:04:11;6.78;;;5.28;;
79066;SDS011;68470;50.224;14.348;2023-06-26T10:06:38;7.32;;;5.28;;
79066;SDS011;68470;50.224;14.348;2023-06-26T10:09:17;6.78;;;5.45;;
79066;SDS011;68470;50.224;14.348;2023-06-26T10:14:20;7.50;;;5.45;;
79066;SDS011;68470;50.224;14.348;2023-06-26T10:16:48;6.28;;;5.18;;
79066;SDS011;68470;50.224;14.348;2023-06-26T10:21:51;6.55;;;5.03;;
79066;SDS011;68470;50.224;14.348;2023-06-26T10:24:19;5.40;;;4.80;;
79066;SDS011;68470;50.224;14.348;2023-06-26T10:26:45;5.90;;;5.30;;
79066;SDS011;68470;50.224;14.348;2023-06-26T10:29:15;6.07;;;5.47;;
79066;SDS011;68470;50.224;14.348;2023-06-26T10:31:44;6.38;;;5.53;;
79066;SDS011;68470;50.224;14.348;2023-06-26T10:34:15;6.45;;;5.32;;
79066;SDS011;68470;50.224;14.348;2023-06-26T10:36:44;8.02;;;5.85;;
79066;SDS011;68470;50.224;14.348;2023-06-26T10:39:10;7.65;;;5.82;;
79066;SDS011;68470;50.224;14.348;2023-06-26T10:41:36;8.27;;;5.63;;
79066;SDS011;68470;50.224;14.348;2023-06-26T10:44:08;6.32;;;5.40;;
79066;SDS011;68470;50.224;14.348;2023-06-26T10:46:50;7.45;;;5.82;;
79066;SDS011;68470;50.224;14.348;2023-06-26T10:49:25;6.18;;;5.32;;
79066;SDS011;68470;50.224;14.348;2023-06-26T10:51:53;5.40;;;4.65;;
79066;SDS011;68470;50.224;14.348;2023-06-26T10:54:21;8.05;;;5.65;;
79066;SDS011;68470;50.224;14.348;2023-06-26T10:56:48;6.03;;;4.80;;
79066;SDS011;68470;50.224;14.348;2023-06-26T10:59:25;6.47;;;5.38;;
79066;SDS011;68470;50.224;14.348;2023-06-26T11:02:02;5.63;;;4.50;;
79066;SDS011;68470;50.224;14.348;2023-06-26T11:04:35;6.60;;;5.95;;
79066;SDS011;68470;50.224;14.348;2023-06-26T11:12:42;5.90;;;5.13;;
79066;SDS011;68470;50.224;14.348;2023-06-26T11:17:36;6.28;;;5.10;;
79066;SDS011;68470;50.224;14.348;2023-06-26T11:20:04;6.80;;;5.28;;
79066;SDS011;68470;50.224;14.348;2023-06-26T11:22:34;6.22;;;5.25;;
79066;SDS011;68470;50.224;14.348;2023-06-26T11:25:02;6.60;;;5.22;;
79066;SDS011;68470;50.224;14.348;2023-06-26T11:30:05;6.00;;;5.40;;
79066;SDS011;68470;50.224;14.348;2023-06-26T11:32:31;6.22;;;5.53;;
79066;SDS011;68470;50.224;14.348;2023-06-26T11:35:00;6.13;;;5.47;;
79066;SDS011;68470;50.224;14.348;2023-06-26T11:37:26;6.35;;;5.72;;
79066;SDS011;68470;50.224;14.348;2023-06-26T11:39:52;5.75;;;5.13;;
79066;SDS011;68470;50.224;14.348;2023-06-26T11:42:18;7.43;;;6.70;;
79066;SDS011;68470;50.224;14.348;2023-06-26T11:44:45;6.05;;;5.15;;
79066;SDS011;68470;50.224;14.348;2023-06-26T11:47:16;7.97;;;5.45;;
79066;SDS011;68470;50.224;14.348;2023-06-26T11:49:46;5.85;;;5.15;;
79066;SDS011;68470;50.224;14.348;2023-06-26T11:52:15;5.68;;;5.07;;
79066;SDS011;68470;50.224;14.348;2023-06-26T11:54:41;5.93;;;5.32;;
79066;SDS011;68470;50.224;14.348;2023-06-26T11:57:12;7.40;;;4.97;;
79066;SDS011;68470;50.224;14.348;2023-06-26T11:59:39;6.15;;;5.55;;
79066;SDS011;68470;50.224;14.348;2023-06-26T12:02:06;6.50;;;5.18;;
79066;SDS011;68470;50.224;14.348;2023-06-26T12:04:33;9.43;;;5.97;;
79066;SDS011;68470;50.224;14.348;2023-06-26T12:07:02;6.93;;;5.82;;
79066;SDS011;68470;50.224;14.348;2023-06-26T12:11:56;6.30;;;5.05;;
79066;SDS011;68470;50.224;14.348;2023-06-26T12:14:23;6.10;;;5.50;;
79066;SDS011;68470;50.224;14.348;2023-06-26T12:16:51;6.78;;;6.07;;
79066;SDS011;68470;50.224;14.348;2023-06-26T12:19:17;7.22;;;5.53;;
79066;SDS011;68470;50.224;14.348;2023-06-26T12:21:52;6.07;;;5.47;;
79066;SDS011;68470;50.224;14.348;2023-06-26T12:24:18;11.32;;;5.43;;
79066;SDS011;68470;50.224;14.348;2023-06-26T12:26:48;6.38;;;4.50;;
79066;SDS011;68470;50.224;14.348;2023-06-26T12:29:19;6.00;;;4.90;;
79066;SDS011;68470;50.224;14.348;2023-06-26T12:31:50;8.43;;;5.38;;
79066;SDS011;68470;50.224;14.348;2023-06-26T12:34:21;6.78;;;5.35;;
79066;SDS011;68470;50.224;14.348;2023-06-26T12:36:52;7.88;;;5.35;;
79066;SDS011;68470;50.224;14.348;2023-06-26T12:39:21;6.38;;;5.57;;
79066;SDS011;68470;50.224;14.348;2023-06-26T12:41:48;7.57;;;5.55;;
79066;SDS011;68470;50.224;14.348;2023-06-26T12:44:35;8.27;;;5.75;;
79066;SDS011;68470;50.224;14.348;2023-06-26T12:47:02;5.78;;;5.18;;
79066;SDS011;68470;50.224;14.348;2023-06-26T12:49:34;6.30;;;5.43;;
79066;SDS011;68470;50.224;14.348;2023-06-26T12:52:03;6.22;;;5.63;;
79066;SDS011;68470;50.224;14.348;2023-06-26T12:54:30;7.90;;;6.15;;
79066;SDS011;68470;50.224;14.348;2023-06-26T12:56:57;6.53;;;5.90;;
79066;SDS011;68470;50.224;14.348;2023-06-26T12:59:22;7.47;;;5.82;;
79066;SDS011;68470;50.224;14.348;2023-06-26T13:01:49;6.38;;;5.15;;
79066;SDS011;68470;50.224;14.348;2023-06-26T13:04:15;6.97;;;5.38;;
79066;SDS011;68470;50.224;14.348;2023-06-26T13:06:41;7.45;;;5.63;;
79066;SDS011;68470;50.224;14.348;2023-06-26T13:09:07;7.43;;;6.35;;
79066;SDS011;68470;50.224;14.348;2023-06-26T13:11:33;8.10;;;6.53;;
79066;SDS011;68470;50.224;14.348;2023-06-26T13:14:00;6.90;;;5.50;;
79066;SDS011;68470;50.224;14.348;2023-06-26T13:16:26;7.13;;;6.43;;
79066;SDS011;68470;50.224;14.348;2023-06-26T13:18:51;9.35;;;5.65;;
79066;SDS011;68470;50.224;14.348;2023-06-26T13:21:17;7.47;;;6.60;;
79066;SDS011;68470;50.224;14.348;2023-06-26T13:23:43;8.18;;;5.75;;
79066;SDS011;68470;50.224;14.348;2023-06-26T13:26:10;7.47;;;5.75;;
79066;SDS011;68470;50.224;14.348;2023-06-26T13:28:36;7.65;;;5.90;;
79066;SDS011;68470;50.224;14.348;2023-06-26T13:31:05;7.05;;;5.50;;
79066;SDS011;68470;50.224;14.348;2023-06-26T13:33:31;6.82;;;5.63;;
79066;SDS011;68470;50.224;14.348;2023-06-26T13:35:57;7.10;;;5.60;;
79066;SDS011;68470;50.224;14.348;2023-06-26T13:38:23;9.43;;;6.15;;
79066;SDS011;68470;50.224;14.348;2023-06-26T13:40:51;7.03;;;6.32;;
79066;SDS011;68470;50.224;14.348;2023-06-26T13:43:17;6.70;;;5.57;;
79066;SDS011;68470;50.224;14.348;2023-06-26T13:45:43;7.55;;;6.80;;
79066;SDS011;68470;50.224;14.348;2023-06-26T13:48:08;6.88;;;5.90;;
79066;SDS011;68470;50.224;14.348;2023-06-26T13:50:34;7.45;;;5.80;;
79066;SDS011;68470;50.224;14.348;2023-06-26T13:53:00;6.60;;;5.50;;
79066;SDS011;68470;50.224;14.348;2023-06-26T13:55:27;7.53;;;5.78;;
79066;SDS011;68470;50.224;14.348;2023-06-26T13:57:53;8.32;;;5.70;;
79066;SDS011;68470;50.224;14.348;2023-06-26T14:00:21;7.03;;;6.32;;
79066;SDS011;68470;50.224;14.348;2023-06-26T14:02:47;8.23;;;6.03;;
79066;SDS011;68470;50.224;14.348;2023-06-26T14:05:14;8.10;;;5.53;;
79066;SDS011;68470;50.224;14.348;2023-06-26T14:07:39;7.47;;;6.10;;
79066;SDS011;68470;50.224;14.348;2023-06-26T14:10:06;7.85;;;6.30;;
79066;SDS011;68470;50.224;14.348;2023-06-26T14:12:32;8.50;;;5.97;;
79066;SDS011;68470;50.224;14.348;2023-06-26T14:14:58;8.07;;;6.10;;
79066;SDS011;68470;50.224;14.348;2023-06-26T14:17:24;6.22;;;5.57;;
79066;SDS011;68470;50.224;14.348;2023-06-26T14:19:51;7.30;;;5.85;;
79066;SDS011;68470;50.224;14.348;2023-06-26T14:22:18;6.65;;;5.03;;
79066;SDS011;68470;50.224;14.348;2023-06-26T14:24:44;6.68;;;5.70;;
79066;SDS011;68470;50.224;14.348;2023-06-26T14:27:09;6.72;;;6.03;;
79066;SDS011;68470;50.224;14.348;2023-06-26T14:29:36;6.43;;;5.65;;
79066;SDS011;68470;50.224;14.348;2023-06-26T14:32:02;7.70;;;5.35;;
79066;SDS011;68470;50.224;14.348;2023-06-26T14:34:29;6.05;;;5.43;;
79066;SDS011;68470;50.224;14.348;2023-06-26T14:36:55;7.43;;;5.43;;
79066;SDS011;68470;50.224;14.348;2023-06-26T14:39:21;6.63;;;5.18;;
79066;SDS011;68470;50.224;14.348;2023-06-26T14:41:47;6.25;;;5.25;;
79066;SDS011;68470;50.224;14.348;2023-06-26T14:44:13;6.60;;;5.22;;
79066;SDS011;68470;50.224;14.348;2023-06-26T14:46:39;8.35;;;5.63;;
79066;SDS011;68470;50.224;14.348;2023-06-26T14:49:05;7.07;;;5.10;;
79066;SDS011;68470;50.224;14.348;2023-06-26T14:51:31;6.18;;;5.43;;
79066;SDS011;68470;50.224;14.348;2023-06-26T14:53:57;6.63;;;5.55;;
79066;SDS011;68470;50.224;14.348;2023-06-26T14:56:23;6.18;;;4.32;;
79066;SDS011;68470;50.224;14.348;2023-06-26T14:58:49;6.15;;;5.15;;